• Join FlightAware (Why Join?)
  • Login
  • US Flag 
03:55PM EDT


 

Airport Tracker/Info


-or-


 

Live Flight TrackerFlight Track Log ✈ EGF4247 ✈ 30-Apr-2013 ✈ KBUF - KORD

Flight Track Log - Related Links

Times and Time Zones

All times are in EDT time to prevent confusion due to time zone crossing. See the EGF4247 flight status page for this flight to view local times or setup timezone preferences in your user account.

Time Position Orientation Groundspeed Altitude Reporting Facility
EDT Latitude Longitude Course Direction KTS MPH feet Rate Location/Type
03:42PM 42.9333 -78.7500 270° West 168 193 1,400  Level Buffalo TRACON
03:43PM 42.8833 -78.8167 224° Southwest 211 243 3,900 2,220 Climbing Buffalo TRACON
03:44PM 42.8833 -78.9000 270° West 236 272 6,400 2,400 Climbing Buffalo TRACON
03:45PM 42.9513 -79.0824 277° West  Level FlightAware Approximate
03:45PM 42.8833 -78.9000 270° West 220 253 7,200  Level Toronto Center
03:46PM 42.9615 -79.2045 277° West  Level FlightAware Approximate
03:46PM 42.9000 -79.0000 283° West 230 265 9,400  Level Toronto Center
03:47PM 42.9667 -79.3269 270° West  Level FlightAware Approximate
03:47PM 42.9167 -79.0833 285° West 250 288 11,200  Level Toronto Center
03:48PM 42.9333 -79.1833 283° West 270 311 12,900 1,680 Climbing Toronto Center
03:49PM 42.9833 -79.2667 309° West 280 322 14,600 1,800 Climbing Toronto Center
03:50PM 43.0500 -79.3167 331° Northwest 290 334 16,600 1,800 Climbing Toronto Center
03:51PM 43.1167 -79.3833 324° Northwest 290 334 18,300 1,200 Climbing Toronto Center
03:52PM 43.1167 -79.5000 270° West 290 334 19,000 960 Climbing Toronto Center
03:53PM 43.1167 -79.6167 270° West 310 357 20,300 1,560 Climbing Toronto Center
03:54PM 43.1000 -79.7167 257° West 310 357 22,200 1,800 Climbing Toronto Center
03:55PM 43.1000 -79.8333 270° West 310 357 23,900 1,500 Climbing Toronto Center
03:56PM 43.1000 -79.9500 270° West 310 357 25,300 1,320 Climbing Toronto Center
03:57PM 43.0833 -80.0667 259° West 320 368 26,600 1,200 Climbing Toronto Center
03:58PM 43.0833 -80.2000 270° West 320 368 27,800 1,020 Climbing Toronto Center
03:59PM 43.0833 -80.3333 270° West 330 380 28,700 900 Climbing Toronto Center
04:00PM 43.0667 -80.4500 259° West 340 391 29,600 900 Climbing Toronto Center
04:01PM 43.0667 -80.5833 270° West 350 403 30,600 900 Climbing Toronto Center
04:02PM 43.0500 -80.7333 261° West 360 414 31,500 660 Climbing Toronto Center
04:03PM 43.0333 -80.8667 260° West 370 426 32,000 240 Climbing Toronto Center
04:04PM 43.0333 -81.0167 270° West 400 460 32,000  Level Toronto Center
04:05PM 43.0167 -81.1833 262° West 420 483 32,000  Level Toronto Center
04:06PM 43.0167 -81.3500 270° West 420 483 32,000  Level Toronto Center
04:07PM 43.0167 -81.5000 270° West 420 483 32,000  Level Toronto Center
04:08PM 43.0167 -81.6667 270° West 410 472 32,000  Level Toronto Center
04:09PM 43.0167 -81.8167 270° West 410 472 32,000  Level Toronto Center
04:10PM 43.0000 -81.9833 262° West 410 472 32,000  Level Toronto Center
04:11PM 43.0000 -82.1333 270° West 410 472 32,000  Level Toronto Center
04:12PM 43.0000 -82.2833 270° West 410 472 32,000  Level Toronto Center
04:13PM 43.0000 -82.4333 270° West 410 472 32,000  Level Toronto Center
04:14PM 43.0000 -82.6000 270° West 410 472 32,000  Level Toronto Center
04:15PM 43.0006 -82.7436 270° West 421 484 32,000  Level Cleveland Center
04:16PM 42.9956 -82.8994 268° West 421 484 32,000  Level Cleveland Center
04:17PM 42.9903 -83.0525 267° West 421 484 32,000  Level Cleveland Center
04:18PM 42.9844 -83.2142 267° West 421 484 32,000  Level Cleveland Center
04:19PM 42.9789 -83.3700 267° West 421 484 32,000  Level Cleveland Center
04:20PM 42.9728 -83.5314 267° West 421 484 32,000  Level Cleveland Center
04:21PM 42.9686 -83.6903 268° West 421 484 32,000  Level Cleveland Center
04:22PM 42.9558 -83.8514 264° West 421 484 32,000  Level Cleveland Center
04:23PM 42.9386 -84.0092 262° West 421 484 32,000  Level Cleveland Center
04:24PM 42.9253 -84.1731 264° West 421 484 32,000  Level Cleveland Center
04:25PM 42.9003 -84.4250 262° West 426 490 32,000  Level Chicago Center
04:26PM 42.8836 -84.5833 262° West 423 487 32,000  Level Chicago Center
04:27PM 42.8675 -84.7417 262° West 423 487 32,000  Level Chicago Center
04:28PM 42.8519 -84.8994 262° West 421 484 32,000  Level Chicago Center
04:29PM 42.8347 -85.0583 262° West 423 487 32,000  Level Chicago Center
04:30PM 42.8172 -85.2172 262° West 424 488 32,000 -960 Level Chicago Center
04:31PM 42.7964 -85.4056 261° West 421 484 30,000 -1,920 Descending Chicago Center
04:32PM 42.7753 -85.5636 260° West 423 487 28,000 -2,040 Descending Chicago Center
04:33PM 42.7461 -85.7208 256° West 426 490 25,800 -2,100 Descending Chicago Center
04:35PM 42.7175 -85.8733 256° West 416 479 23,700 -2,040 Descending Chicago Center
04:36PM 42.6911 -86.0239 257° West 410 472 21,600 -1,800 Descending Chicago Center
04:37PM 42.6631 -86.1722 256° West 405 466 20,100 -780 Descending Chicago Center
04:38PM 42.6381 -86.3147 257° West 394 453 20,000 -180 Descending Chicago Center
04:39PM 42.6047 -86.4853 255° West 390 449 19,800 -600 Descending Chicago Center
04:40PM 42.5778 -86.6283 256° West 392 451 18,800 -1,380 Descending Chicago Center
04:41PM 42.5539 -86.7581 256° West 383 441 17,000 -2,100 Descending Chicago Center
04:42PM 42.5169 -86.8861 249° West 346 398 14,500 -2,520 Descending Chicago Center
04:43PM 42.4847 -87.0050 250° West 339 390 11,900 -2,220 Descending Chicago Center
04:44PM 42.4522 -87.1167 249° West 324 373 10,000 -1,260 Descending Chicago Center
04:45PM 42.4222 -87.2300 250° West 269 310 9,300 -480 Descending Chicago Center
04:46PM 42.3906 -87.3139 243° Southwest 253 291 9,000 -180 Descending Chicago Center
04:47PM 42.3519 -87.4006 239° Southwest 247 284 9,000 -240 Level Chicago Center
04:48PM 42.3164 -87.4797 239° Southwest 247 284 8,600 -540 Descending Chicago Center
04:49PM 42.2817 -87.5589 239° Southwest 247 284 8,000 -540 Descending Chicago Center
04:50PM 42.2503 -87.6231 237° Southwest 211 243 7,500 -960 Descending Chicago Center
04:51PM 42.2042 -87.6653 214° Southwest 200 230 6,000 -1,260 Descending Chicago Center
04:52PM 42.1617 -87.7153 221° Southwest 201 231 4,900 -1,140 Descending Chicago Center